Terminal Aerodrome Forecast
Issued by NWS

Home | Current Version | Previous Version | Text Only | Print | Product List | Glossary On
Versions: 1 2 3 4 5 6 7 8 9 10 11 12 13 14 15 16
000
FTAK31 PAFA 261140
TAFATA
TAF
PATA 261140Z 2612/2712 00000KT 1 1/2SM BR BKN002 OVC090
      TEMPO 2612/2615 1/2SM FG VV002
     FM261700 VRB03KT P6SM SCT010 BKN090
     FM262100 23004KT P6SM SCT010 SCT040=

USA.gov is the U.S. government's official web portal to all federal, state and local government web resources and services.